Time;durP1;ratioP1;P1;durP2;ratioP2;P2;SDS_P1;SDS_P2;PMS_P1;PMS_P2;Temp;Humidity;BMP_temperature;BMP_pressure;BME280_temperature;BME280_humidity;BME280_pressure;Samples;Min_cycle;Max_cycle;Signal;HPM_P1;HPM_P2
2022/01/25 00:26:59;;;;;;;50.58;19.13;;;;;;;;;;4973068;28;20506;-66
2022/01/25 00:29:09;;;;;;;47.72;17.70;;;;;;;;;;4969915;28;20051;-67
2022/01/25 00:31:37;;;;;;;50.70;19.13;;;;;;;;;;4972722;28;20518;-66
2022/01/25 00:34:03;;;;;;;48.87;17.77;;;;;;;;;;4972198;28;20424;-67
2022/01/25 00:36:29;;;;;;;49.85;18.35;;;;;;;;;;4953965;28;20730;-66
2022/01/25 00:38:55;;;;;;;50.50;19.20;;;;;;;;;;4954268;28;20329;-66
2022/01/25 00:41:22;;;;;;;56.20;19.63;;;;;;;;;;4971954;28;20391;-69
2022/01/25 00:43:48;;;;;;;43.65;17.50;;;;;;;;;;4972369;28;20083;-67
2022/01/25 00:46:14;;;;;;;43.25;18.98;;;;;;;;;;4972092;28;20461;-66
2022/01/25 00:48:47;;;;;;;48.88;20.05;;;;;;;;;;4954157;28;20464;-66
2022/01/25 00:54:09;;;;;;;38.03;17.15;;;;;;;;;;4971692;28;20379;-66
2022/01/25 00:56:36;;;;;;;;;;;;;;;;;;4955452;28;20316;-66
2022/01/25 00:59:05;;;;;;;54.00;17.88;;;;;;;;;;4953948;28;20248;-66
2022/01/25 01:01:30;;;;;;;42.08;16.33;;;;;;;;;;4946793;28;20033;-67
2022/01/25 01:03:56;;;;;;;44.67;17.95;;;;;;;;;;4955675;28;20440;-66
2022/01/25 01:06:22;;;;;;;45.63;18.27;;;;;;;;;;4934068;28;20425;-67
2022/01/25 01:08:47;;;;;;;34.55;17.30;;;;;;;;;;4953246;28;20111;-66
2022/01/25 01:11:19;;;;;;;33.97;17.50;;;;;;;;;;4951890;28;20126;-66
2022/01/25 01:36:49;;;;;;;41.83;17.77;;;;;;;;;;4928170;28;20527;-67
2022/01/25 01:39:19;;;;;;;43.88;16.95;;;;;;;;;;4909179;28;20358;-67
2022/01/25 01:41:30;;;;;;;42.05;17.13;;;;;;;;;;4945133;28;20447;-67
2022/01/25 01:43:57;;;;;;;40.58;15.82;;;;;;;;;;4950287;28;20456;-67
2022/01/25 01:49:05;;;;;;;40.65;16.33;;;;;;;;;;4951356;28;20470;-66
2022/01/25 01:51:34;;;;;;;41.80;17.60;;;;;;;;;;4951662;28;20460;-66
2022/01/25 01:54:19;;;;;;;37.72;15.00;;;;;;;;;;4950039;28;20381;-66
2022/01/25 01:56:45;;;;;;;48.63;16.20;;;;;;;;;;4951238;28;20065;-66
2022/01/25 01:59:14;;;;;;;37.83;15.82;;;;;;;;;;4933488;28;20109;-67
2022/01/25 02:01:42;;;;;;;39.85;16.10;;;;;;;;;;4934181;28;20056;-66
2022/01/25 02:04:09;;;;;;;35.53;16.10;;;;;;;;;;4952159;28;20433;-66
2022/01/25 02:06:35;;;;;;;37.47;15.30;;;;;;;;;;4932918;28;20233;-67
2022/01/25 02:09:00;;;;;;;39.30;15.75;;;;;;;;;;4950841;28;20038;-66
2022/01/25 02:11:26;;;;;;;37.95;14.77;;;;;;;;;;4951228;28;20448;-66
2022/01/25 02:13:51;;;;;;;35.17;14.80;;;;;;;;;;4950760;28;20048;-66
2022/01/25 02:16:34;;;;;;;43.58;15.60;;;;;;;;;;4951191;28;20519;-66
2022/01/25 02:24:32;;;;;;;33.63;15.50;;;;;;;;;;4950911;28;20312;-66
2022/01/25 02:26:58;;;;;;;39.22;14.95;;;;;;;;;;4933884;28;20337;-66
2022/01/25 02:29:24;;;;;;;40.92;15.40;;;;;;;;;;4933284;28;20364;-66
2022/01/25 02:31:51;;;;;;;36.08;14.07;;;;;;;;;;4933210;28;20034;-67
2022/01/25 02:34:16;;;;;;;37.67;14.68;;;;;;;;;;4949244;28;20048;-67
2022/01/25 02:36:42;;;;;;;31.08;14.55;;;;;;;;;;4951310;28;20429;-67
2022/01/25 02:39:07;;;;;;;42.97;15.13;;;;;;;;;;4952384;28;20385;-67
2022/01/25 02:41:33;;;;;;;38.42;15.30;;;;;;;;;;4950453;28;20435;-68
2022/01/25 02:43:59;;;;;;;39.30;15.63;;;;;;;;;;4950878;28;20423;-67
2022/01/25 02:49:02;;;;;;;34.38;15.57;;;;;;;;;;4949173;28;20412;-66
2022/01/25 02:51:33;;;;;;;40.85;15.13;;;;;;;;;;4932475;28;20502;-68
2022/01/25 02:53:59;;;;;;;40.08;15.52;;;;;;;;;;4933230;28;20388;-67
2022/01/25 02:56:26;;;;;;;29.85;14.23;;;;;;;;;;4933176;28;20511;-67
2022/01/25 02:58:51;;;;;;;38.05;15.45;;;;;;;;;;4932511;28;20026;-66
2022/01/25 03:01:17;;;;;;;33.53;14.45;;;;;;;;;;4932739;28;20456;-66
2022/01/25 03:03:43;;;;;;;31.70;13.85;;;;;;;;;;4932487;28;20351;-67
2022/01/25 03:06:08;;;;;;;32.50;13.85;;;;;;;;;;4950186;28;20030;-66
2022/01/25 03:08:34;;;;;;;31.50;15.25;;;;;;;;;;4949681;28;20463;-66
2022/01/25 03:10:59;;;;;;;33.42;14.55;;;;;;;;;;4950516;28;20053;-67
2022/01/25 03:13:32;;;;;;;34.85;13.82;;;;;;;;;;4932366;28;20514;-66
2022/01/25 03:16:02;;;;;;;33.15;12.70;;;;;;;;;;4934833;28;20399;-66
2022/01/25 03:21:03;;;;;;;32.45;14.23;;;;;;;;;;4933130;28;20464;-66
2022/01/25 03:23:31;;;;;;;32.38;13.73;;;;;;;;;;4932965;28;20034;-66
2022/01/25 03:25:56;;;;;;;31.45;14.82;;;;;;;;;;4949932;28;20368;-67
2022/01/25 03:28:21;;;;;;;41.00;14.55;;;;;;;;;;4950662;28;20415;-67
2022/01/25 03:30:47;;;;;;;31.77;13.77;;;;;;;;;;4932182;28;20175;-67
2022/01/25 03:33:14;;;;;;;31.30;13.40;;;;;;;;;;4950304;28;20349;-67
2022/01/25 03:35:40;;;;;;;31.23;14.13;;;;;;;;;;4949622;28;20416;-66
2022/01/25 03:38:06;;;;;;;36.15;14.07;;;;;;;;;;4948392;28;20034;-67
2022/01/25 03:40:31;;;;;;;34.72;14.35;;;;;;;;;;4949266;28;20498;-67
2022/01/25 03:42:59;;;;;;;34.50;14.35;;;;;;;;;;4933361;28;20034;-66
2022/01/25 03:45:30;;;;;;;37.65;14.68;;;;;;;;;;4950403;28;20207;-67
2022/01/25 03:48:00;;;;;;;27.42;13.30;;;;;;;;;;4948072;28;20411;-67
2022/01/25 03:50:26;;;;;;;38.13;15.10;;;;;;;;;;4950091;28;20432;-68
2022/01/25 03:52:52;;;;;;;26.08;12.65;;;;;;;;;;4949519;28;20326;-66
2022/01/25 03:55:18;;;;;;;29.50;13.35;;;;;;;;;;4949865;28;20143;-66
2022/01/25 03:57:44;;;;;;;34.90;14.05;;;;;;;;;;4932625;28;20175;-66
2022/01/25 04:00:10;;;;;;;33.78;14.60;;;;;;;;;;4935621;28;20022;-67
2022/01/25 04:02:39;;;;;;;30.48;12.73;;;;;;;;;;4954527;28;20115;-66
2022/01/25 04:05:08;;;;;;;30.85;13.32;;;;;;;;;;4953162;28;20453;-67
2022/01/25 04:07:45;;;;;;;;;;;;;;;;;;4953533;28;20372;-67
2022/01/25 04:10:10;;;;;;;30.20;12.52;;;;;;;;;;4953190;28;20339;-66
2022/01/25 04:12:36;;;;;;;32.63;13.07;;;;;;;;;;4954378;28;20455;-67
2022/01/25 04:15:02;;;;;;;33.88;13.82;;;;;;;;;;4951861;28;20328;-67
2022/01/25 04:17:28;;;;;;;36.63;12.80;;;;;;;;;;4952822;28;20333;-67
2022/01/25 04:25:21;;;;;;;32.47;13.93;;;;;;;;;;4952983;28;20053;-67
2022/01/25 04:27:46;;;;;;;39.42;14.52;;;;;;;;;;4953662;28;20428;-67
2022/01/25 04:30:12;;;;;;;32.30;13.75;;;;;;;;;;4934942;28;20448;-67
2022/01/25 04:32:51;;;;;;;33.50;12.82;;;;;;;;;;4954146;28;20336;-67
2022/01/25 04:49:06;;;;;;;29.52;12.90;;;;;;;;;;4953612;28;20340;-68
2022/01/25 04:51:44;;;;;;;25.38;12.02;;;;;;;;;;4936847;28;20377;-67
2022/01/25 04:57:29;;;;;;;32.95;14.57;;;;;;;;;;4934703;28;20425;-66
2022/01/25 04:59:32;;;;;;;24.70;11.98;;;;;;;;;;4949821;28;20348;-67
2022/01/25 05:02:06;;;;;;;26.00;11.88;;;;;;;;;;4953030;28;20373;-67
2022/01/25 05:04:37;;;;;;;34.42;14.68;;;;;;;;;;4936074;28;20112;-67
2022/01/25 05:07:33;;;;;;;26.98;11.70;;;;;;;;;;4931059;28;20478;-66
2022/01/25 05:09:51;;;;;;;27.00;11.70;;;;;;;;;;4932917;28;20480;-67
2022/01/25 05:12:17;;;;;;;26.70;12.45;;;;;;;;;;4932869;28;20310;-67
2022/01/25 05:15:18;;;;;;;25.90;13.43;;;;;;;;;;4931265;28;20038;-67
2022/01/25 05:17:38;;;;;;;25.52;11.25;;;;;;;;;;4932492;28;20528;-67
2022/01/25 05:22:50;;;;;;;31.48;13.32;;;;;;;;;;4932882;28;20472;-67
2022/01/25 05:25:15;;;;;;;25.65;11.77;;;;;;;;;;4932474;28;20341;-67
2022/01/25 05:27:40;;;;;;;27.00;11.57;;;;;;;;;;4932424;28;20425;-67
2022/01/25 05:30:06;;;;;;;26.90;11.85;;;;;;;;;;4932705;28;20390;-66
2022/01/25 05:32:33;;;;;;;27.33;11.52;;;;;;;;;;4932417;28;20459;-66
2022/01/25 05:34:59;;;;;;;27.05;12.40;;;;;;;;;;4932913;28;20113;-66
2022/01/25 05:37:24;;;;;;;24.52;11.20;;;;;;;;;;4932631;28;20030;-67
2022/01/25 05:39:51;;;;;;;25.50;11.65;;;;;;;;;;4930857;28;20540;-67
2022/01/25 05:42:32;;;;;;;24.77;10.88;;;;;;;;;;4932080;28;20429;-67
2022/01/25 05:45:11;;;;;;;25.52;10.43;;;;;;;;;;4932918;28;20429;-67
2022/01/25 05:47:38;;;;;;;26.13;10.93;;;;;;;;;;4930497;28;20496;-69
2022/01/25 05:50:04;;;;;;;28.42;12.63;;;;;;;;;;4931885;28;20475;-66
2022/01/25 05:52:29;;;;;;;26.60;11.85;;;;;;;;;;4946483;28;20345;-66
2022/01/25 05:54:56;;;;;;;25.77;11.85;;;;;;;;;;4932870;28;20313;-67
2022/01/25 05:57:22;;;;;;;19.55;10.35;;;;;;;;;;4929974;28;20446;-66
2022/01/25 05:59:47;;;;;;;23.33;11.63;;;;;;;;;;4932153;28;20440;-67
2022/01/25 06:02:17;;;;;;;34.22;12.98;;;;;;;;;;4931811;28;20349;-67
2022/01/25 06:04:44;;;;;;;24.55;11.88;;;;;;;;;;4931883;28;20346;-68
2022/01/25 06:07:09;;;;;;;28.05;11.82;;;;;;;;;;4937245;28;20372;-66
2022/01/25 06:09:35;;;;;;;25.17;11.10;;;;;;;;;;4951182;28;20029;-68
2022/01/25 06:12:00;;;;;;;27.92;12.18;;;;;;;;;;4952753;28;20417;-67
2022/01/25 06:14:25;;;;;;;27.58;12.07;;;;;;;;;;4951301;28;20384;-67
2022/01/25 06:16:51;;;;;;;25.15;10.65;;;;;;;;;;4951283;28;20029;-67
2022/01/25 06:19:16;;;;;;;25.83;11.27;;;;;;;;;;4950840;28;20429;-67
2022/01/25 06:21:41;;;;;;;26.40;11.75;;;;;;;;;;4950337;28;20447;-67
2022/01/25 06:24:07;;;;;;;26.70;11.00;;;;;;;;;;4951531;28;20429;-66
2022/01/25 06:26:32;;;;;;;24.13;11.43;;;;;;;;;;4950403;28;20303;-66
2022/01/25 06:28:59;;;;;;;23.30;11.20;;;;;;;;;;4950920;28;20463;-66
2022/01/25 06:31:27;;;;;;;23.38;11.55;;;;;;;;;;4950731;28;20324;-67
2022/01/25 06:33:52;;;;;;;25.77;10.27;;;;;;;;;;4950301;28;20044;-66
2022/01/25 06:36:18;;;;;;;25.52;11.85;;;;;;;;;;4950594;28;20062;-67
2022/01/25 06:38:44;;;;;;;23.88;11.23;;;;;;;;;;4951140;28;20030;-67
2022/01/25 06:41:10;;;;;;;23.63;11.05;;;;;;;;;;4933612;28;20507;-66
2022/01/25 06:43:36;;;;;;;27.48;11.13;;;;;;;;;;4951520;28;20344;-67
2022/01/25 06:46:03;;;;;;;29.10;12.00;;;;;;;;;;4950266;28;20448;-67
2022/01/25 06:48:30;;;;;;;27.08;10.93;;;;;;;;;;4932739;28;20025;-66
2022/01/25 06:50:55;;;;;;;22.60;10.90;;;;;;;;;;4949260;28;20479;-67
2022/01/25 06:53:20;;;;;;;22.85;11.15;;;;;;;;;;4950914;28;20467;-66
2022/01/25 06:55:46;;;;;;;23.50;10.30;;;;;;;;;;4950636;28;20567;-66
2022/01/25 06:58:11;;;;;;;24.25;11.35;;;;;;;;;;4932617;28;20440;-67
2022/01/25 07:00:37;;;;;;;23.25;11.07;;;;;;;;;;4950903;28;20332;-67
2022/01/25 07:03:03;;;;;;;24.05;10.75;;;;;;;;;;4948747;28;20113;-67
2022/01/25 07:05:28;;;;;;;25.10;11.38;;;;;;;;;;4950078;28;20059;-66
2022/01/25 07:07:54;;;;;;;23.38;11.55;;;;;;;;;;4944963;28;20042;-67
2022/01/25 07:10:21;;;;;;;28.25;12.05;;;;;;;;;;4929753;28;20329;-68
2022/01/25 07:12:46;;;;;;;24.20;11.75;;;;;;;;;;4929149;28;20349;-67
2022/01/25 07:15:13;;;;;;;22.30;11.27;;;;;;;;;;4932022;28;20352;-67
2022/01/25 07:17:39;;;;;;;24.02;12.32;;;;;;;;;;4931087;28;20319;-68
2022/01/25 07:20:06;;;;;;;27.23;11.02;;;;;;;;;;4930458;28;20450;-67
2022/01/25 07:22:32;;;;;;;24.60;12.27;;;;;;;;;;4930971;28;20511;-66
2022/01/25 07:24:58;;;;;;;26.42;12.07;;;;;;;;;;4929223;28;20491;-66
2022/01/25 07:27:23;;;;;;;23.70;10.95;;;;;;;;;;4931408;28;20425;-66
2022/01/25 07:29:48;;;;;;;22.92;11.30;;;;;;;;;;4930356;28;20423;-67
2022/01/25 07:32:14;;;;;;;20.83;10.57;;;;;;;;;;4931105;28;20425;-66
2022/01/25 07:34:39;;;;;;;22.30;10.77;;;;;;;;;;4932820;28;20421;-67
2022/01/25 07:37:04;;;;;;;24.63;11.75;;;;;;;;;;4934524;28;20376;-66
2022/01/25 07:39:30;;;;;;;27.55;11.38;;;;;;;;;;4934570;28;20030;-67
2022/01/25 07:41:59;;;;;;;28.48;13.60;;;;;;;;;;4934256;28;20049;-69
2022/01/25 07:44:32;;;;;;;26.02;11.18;;;;;;;;;;4933615;28;20361;-67
2022/01/25 07:46:58;;;;;;;24.55;12.15;;;;;;;;;;4934552;28;20488;-66
2022/01/25 07:49:24;;;;;;;23.08;10.35;;;;;;;;;;4933095;28;20397;-67
2022/01/25 07:51:51;;;;;;;23.40;11.00;;;;;;;;;;4933247;28;20397;-67
2022/01/25 07:54:16;;;;;;;23.73;11.23;;;;;;;;;;4934403;28;20441;-67
2022/01/25 07:56:42;;;;;;;23.40;11.70;;;;;;;;;;4932539;28;20579;-67
2022/01/25 07:59:07;;;;;;;27.63;12.20;;;;;;;;;;4934320;28;20433;-67
2022/01/25 08:01:33;;;;;;;22.35;9.93;;;;;;;;;;4933760;28;20432;-67
2022/01/25 08:03:59;;;;;;;23.75;10.88;;;;;;;;;;4949235;28;20424;-68
2022/01/25 08:06:24;;;;;;;23.67;12.07;;;;;;;;;;4934295;28;20109;-66
2022/01/25 08:08:51;;;;;;;25.38;12.05;;;;;;;;;;4952707;28;20445;-67
2022/01/25 08:11:16;;;;;;;22.75;11.18;;;;;;;;;;4953408;28;20463;-67
2022/01/25 08:13:47;;;;;;;23.52;11.65;;;;;;;;;;4953872;28;20413;-67
2022/01/25 08:16:13;;;;;;;23.33;11.35;;;;;;;;;;4953941;28;20371;-67
2022/01/25 08:18:38;;;;;;;23.38;10.82;;;;;;;;;;4935344;28;20319;-67
2022/01/25 08:21:04;;;;;;;24.92;10.48;;;;;;;;;;4951513;28;20519;-67
2022/01/25 08:23:29;;;;;;;29.50;12.38;;;;;;;;;;4952962;28;20441;-66
2022/01/25 08:25:54;;;;;;;27.48;11.43;;;;;;;;;;4951459;28;20436;-67
2022/01/25 08:28:20;;;;;;;27.95;12.40;;;;;;;;;;4953104;28;20056;-66
2022/01/25 08:30:46;;;;;;;22.73;11.43;;;;;;;;;;4935214;28;20022;-67
2022/01/25 08:33:11;;;;;;;25.83;11.50;;;;;;;;;;4952775;28;20049;-67
2022/01/25 08:35:37;;;;;;;25.30;12.25;;;;;;;;;;4954162;28;20391;-67
2022/01/25 08:38:02;;;;;;;23.92;11.02;;;;;;;;;;4953143;28;20033;-67
2022/01/25 08:40:30;;;;;;;27.75;13.50;;;;;;;;;;4952637;28;20368;-67
2022/01/25 08:42:55;;;;;;;25.45;11.10;;;;;;;;;;4952867;28;20490;-67
2022/01/25 08:45:21;;;;;;;21.88;12.30;;;;;;;;;;4952603;28;20457;-67
2022/01/25 08:47:46;;;;;;;23.73;12.30;;;;;;;;;;4952464;28;20306;-67
2022/01/25 08:50:11;;;;;;;25.70;11.38;;;;;;;;;;4952343;28;20463;-67
2022/01/25 08:52:37;;;;;;;24.00;11.15;;;;;;;;;;4953100;28;20026;-68
2022/01/25 08:55:04;;;;;;;30.42;12.57;;;;;;;;;;4952816;28;20444;-67
2022/01/25 08:57:29;;;;;;;27.42;11.40;;;;;;;;;;4950959;28;20407;-67
2022/01/25 08:59:54;;;;;;;24.83;11.80;;;;;;;;;;4935529;28;20389;-67
2022/01/25 09:02:20;;;;;;;23.65;12.30;;;;;;;;;;4952469;28;20551;-67
2022/01/25 09:04:45;;;;;;;24.60;12.50;;;;;;;;;;4934605;28;20402;-67
2022/01/25 09:07:10;;;;;;;23.70;11.70;;;;;;;;;;4952151;28;20401;-66
2022/01/25 09:09:36;;;;;;;26.38;12.35;;;;;;;;;;4952988;28;20448;-67
2022/01/25 09:12:02;;;;;;;27.38;11.88;;;;;;;;;;4951824;28;20329;-68
2022/01/25 09:14:27;;;;;;;23.08;11.60;;;;;;;;;;4934574;28;20102;-67
2022/01/25 09:16:53;;;;;;;22.33;11.63;;;;;;;;;;4951869;28;20433;-67
2022/01/25 09:19:18;;;;;;;22.90;10.95;;;;;;;;;;4950854;28;20432;-67
2022/01/25 09:21:43;;;;;;;23.25;11.45;;;;;;;;;;4952029;28;20420;-66
2022/01/25 09:24:09;;;;;;;22.75;10.90;;;;;;;;;;4951776;28;20364;-67
2022/01/25 09:26:35;;;;;;;23.38;10.80;;;;;;;;;;4950845;28;20360;-67
2022/01/25 09:29:00;;;;;;;26.45;11.85;;;;;;;;;;4952230;28;20314;-68
2022/01/25 09:31:26;;;;;;;24.88;10.15;;;;;;;;;;4950132;28;20328;-66
2022/01/25 09:33:52;;;;;;;25.33;11.45;;;;;;;;;;4950475;28;20344;-67
2022/01/25 09:36:17;;;;;;;25.27;11.27;;;;;;;;;;4952530;28;20407;-68
2022/01/25 09:38:42;;;;;;;20.52;11.32;;;;;;;;;;4951714;28;20347;-66
2022/01/25 09:41:08;;;;;;;23.90;11.95;;;;;;;;;;4951917;28;20030;-67
2022/01/25 09:43:33;;;;;;;22.50;11.10;;;;;;;;;;4949782;28;20084;-68
2022/01/25 09:45:59;;;;;;;23.67;10.98;;;;;;;;;;4933927;28;20384;-66
2022/01/25 09:48:24;;;;;;;23.77;10.98;;;;;;;;;;4933385;28;20424;-67
2022/01/25 09:50:50;;;;;;;22.67;10.63;;;;;;;;;;4951193;28;20404;-67
2022/01/25 09:53:15;;;;;;;19.80;10.52;;;;;;;;;;4952722;28;20416;-66
2022/01/25 09:55:43;;;;;;;30.20;12.90;;;;;;;;;;4952010;28;20421;-66
2022/01/25 09:58:12;;;;;;;24.80;12.00;;;;;;;;;;4933360;28;20341;-67
2022/01/25 10:00:38;;;;;;;23.90;11.85;;;;;;;;;;4951219;28;20120;-67
2022/01/25 10:03:22;;;;;;;22.75;11.18;;;;;;;;;;4933257;28;20125;-66
2022/01/25 10:05:49;;;;;;;24.52;10.82;;;;;;;;;;4949855;28;20503;-67
2022/01/25 10:08:17;;;;;;;24.98;10.60;;;;;;;;;;4945953;28;20373;-68
2022/01/25 10:10:46;;;;;;;27.08;12.65;;;;;;;;;;4932145;28;20515;-67
2022/01/25 10:13:26;;;;;;;26.73;11.27;;;;;;;;;;4930842;28;20405;-67
2022/01/25 10:16:04;;;;;;;19.20;10.48;;;;;;;;;;4931458;28;20476;-66
2022/01/25 10:18:46;;;;;;;23.88;12.45;;;;;;;;;;4932001;28;20319;-68
2022/01/25 10:21:21;;;;;;;24.92;10.75;;;;;;;;;;4931167;28;20026;-67
2022/01/25 10:24:14;;;;;;;21.48;11.38;;;;;;;;;;4929920;28;20376;-68
2022/01/25 10:26:52;;;;;;;25.70;10.35;;;;;;;;;;4931247;28;20311;-66
2022/01/25 10:29:26;;;;;;;24.02;9.93;;;;;;;;;;4932832;28;20435;-67
2022/01/25 10:31:56;;;;;;;24.13;11.55;;;;;;;;;;4946339;28;20472;-67
2022/01/25 10:34:27;;;;;;;21.13;11.27;;;;;;;;;;4931145;28;20069;-66
2022/01/25 10:36:53;;;;;;;20.60;9.85;;;;;;;;;;4929880;28;20072;-66
2022/01/25 10:39:26;;;;;;;22.10;11.27;;;;;;;;;;4931169;28;20105;-67
2022/01/25 10:41:51;;;;;;;27.67;12.02;;;;;;;;;;4929864;28;20467;-68
2022/01/25 10:44:17;;;;;;;20.35;10.00;;;;;;;;;;4929813;28;20475;-67
2022/01/25 10:46:42;;;;;;;21.42;10.50;;;;;;;;;;4931359;28;20109;-67
2022/01/25 10:49:13;;;;;;;23.90;10.88;;;;;;;;;;4931412;28;20496;-67
2022/01/25 10:51:46;;;;;;;23.88;10.93;;;;;;;;;;4929481;28;20421;-67
2022/01/25 10:54:14;;;;;;;20.42;9.75;;;;;;;;;;4931415;28;20346;-67
2022/01/25 10:56:49;;;;;;;20.17;10.35;;;;;;;;;;4945357;28;20437;-67
2022/01/25 10:59:20;;;;;;;21.08;9.93;;;;;;;;;;4931207;28;20438;-66
2022/01/25 11:01:50;;;;;;;25.90;10.52;;;;;;;;;;4929497;28;20329;-67
2022/01/25 11:04:17;;;;;;;24.38;10.23;;;;;;;;;;4931220;28;20089;-67
2022/01/25 11:06:43;;;;;;;21.00;10.98;;;;;;;;;;4931238;28;20511;-66
2022/01/25 11:09:11;;;;;;;29.45;9.80;;;;;;;;;;4950391;28;20490;-67
2022/01/25 11:11:41;;;;;;;24.33;10.60;;;;;;;;;;4965112;28;20494;-66
2022/01/25 11:16:52;;;;;;;22.70;10.43;;;;;;;;;;4963426;28;20460;-67
2022/01/25 11:19:18;;;;;;;19.98;9.75;;;;;;;;;;4949070;28;20528;-67
2022/01/25 11:21:43;;;;;;;24.52;10.52;;;;;;;;;;4950110;28;20389;-66
2022/01/25 11:24:11;;;;;;;18.77;10.02;;;;;;;;;;4951166;28;20358;-67
2022/01/25 11:26:37;;;;;;;22.73;10.85;;;;;;;;;;4950119;28;20397;-67
2022/01/25 11:29:02;;;;;;;21.35;9.50;;;;;;;;;;4933169;28;20113;-66
2022/01/25 11:31:28;;;;;;;22.02;10.88;;;;;;;;;;4932222;28;20456;-66
2022/01/25 11:33:54;;;;;;;17.42;9.85;;;;;;;;;;4932266;28;20430;-67
2022/01/25 11:36:22;;;;;;;16.77;9.45;;;;;;;;;;4964689;28;20364;-67
2022/01/25 11:38:50;;;;;;;19.52;9.65;;;;;;;;;;4932704;28;20325;-67
2022/01/25 11:41:18;;;;;;;21.23;10.35;;;;;;;;;;4949966;28;20425;-67
2022/01/25 11:44:07;;;;;;;17.35;8.90;;;;;;;;;;4948610;28;20447;-66
2022/01/25 11:46:34;;;;;;;17.38;8.73;;;;;;;;;;4932225;28;20353;-67
2022/01/25 11:49:04;;;;;;;19.77;10.45;;;;;;;;;;4964327;28;20403;-67
2022/01/25 11:51:29;;;;;;;21.38;9.38;;;;;;;;;;4949605;28;20436;-66
2022/01/25 11:53:55;;;;;;;22.88;10.25;;;;;;;;;;4950677;28;20389;-67
2022/01/25 11:56:20;;;;;;;19.25;8.95;;;;;;;;;;4949838;28;20333;-67
2022/01/25 11:58:56;;;;;;;19.35;10.18;;;;;;;;;;4950183;28;20361;-67
2022/01/25 12:01:24;;;;;;;21.45;10.00;;;;;;;;;;4932058;28;20139;-67
2022/01/25 12:03:58;;;;;;;20.40;9.50;;;;;;;;;;4950043;28;20416;-67
2022/01/25 12:06:28;;;;;;;22.02;9.60;;;;;;;;;;4950766;28;20104;-67
2022/01/25 12:09:08;;;;;;;19.30;8.32;;;;;;;;;;4929073;28;20453;-67
2022/01/25 12:11:37;;;;;;;19.10;10.10;;;;;;;;;;4930077;28;20404;-66
2022/01/25 12:14:28;;;;;;;;;;;;;;;;;;4931110;28;20467;-67
2022/01/25 12:17:04;;;;;;;18.88;8.32;;;;;;;;;;4919983;28;20351;-67
2022/01/25 12:19:44;;;;;;;17.02;9.32;;;;;;;;;;4932232;28;20338;-66
2022/01/25 12:22:15;;;;;;;21.25;8.98;;;;;;;;;;4932444;28;20595;-67
2022/01/25 12:24:46;;;;;;;16.48;8.38;;;;;;;;;;4932091;28;20341;-67
2022/01/25 12:29:44;;;;;;;21.05;7.85;;;;;;;;;;4948223;28;20393;-66
2022/01/25 12:32:38;;;;;;;17.15;8.43;;;;;;;;;;4933876;28;20333;-67
2022/01/25 12:35:10;;;;;;;16.08;8.50;;;;;;;;;;4933022;28;20433;-67
2022/01/25 12:37:44;;;;;;;18.98;9.75;;;;;;;;;;4933612;28;20369;-67
2022/01/25 12:40:25;;;;;;;19.98;9.93;;;;;;;;;;4933655;28;20034;-67
2022/01/25 12:43:06;;;;;;;18.80;7.93;;;;;;;;;;4933021;28;20488;-67
2022/01/25 12:45:38;;;;;;;18.20;8.18;;;;;;;;;;4931745;28;20031;-66
2022/01/25 12:48:06;;;;;;;24.83;10.70;;;;;;;;;;4932899;28;20445;-66
2022/01/25 12:50:32;;;;;;;19.08;8.68;;;;;;;;;;4931720;28;20536;-67
2022/01/25 12:52:59;;;;;;;20.83;10.43;;;;;;;;;;4933097;28;20506;-67
2022/01/25 12:55:34;;;;;;;20.42;8.18;;;;;;;;;;4931454;28;20441;-68
2022/01/25 12:58:00;;;;;;;18.02;9.25;;;;;;;;;;4933541;28;20022;-67
2022/01/25 13:00:40;;;;;;;15.10;7.50;;;;;;;;;;4933087;28;20425;-67
2022/01/25 13:03:27;;;;;;;18.70;8.05;;;;;;;;;;4933355;28;20421;-66
2022/01/25 13:06:00;;;;;;;19.75;8.52;;;;;;;;;;4932998;28;20056;-67
2022/01/25 13:08:40;;;;;;;17.75;8.90;;;;;;;;;;4931128;28;20459;-68
2022/01/25 13:11:20;;;;;;;13.68;7.45;;;;;;;;;;4933482;28;20536;-68
2022/01/25 13:14:33;;;;;;;18.45;8.43;;;;;;;;;;4932508;28;20026;-67
2022/01/25 13:16:43;;;;;;;19.05;8.80;;;;;;;;;;4928230;28;20463;-67
2022/01/25 13:19:10;;;;;;;18.02;8.20;;;;;;;;;;4932653;28;20333;-66
2022/01/25 13:21:38;;;;;;;19.40;7.65;;;;;;;;;;4932326;28;20449;-67
2022/01/25 13:24:07;;;;;;;18.88;8.85;;;;;;;;;;4931517;28;20322;-66
2022/01/25 13:26:38;;;;;;;21.20;8.25;;;;;;;;;;4932113;28;20579;-67
2022/01/25 13:30:39;;;;;;;19.17;8.35;;;;;;;;;;4932504;28;20492;-67
2022/01/25 13:32:13;;;;;;;18.85;8.10;;;;;;;;;;4933201;28;20368;-67
2022/01/25 13:34:38;;;;;;;18.75;8.68;;;;;;;;;;4932455;28;20381;-67
2022/01/25 13:37:04;;;;;;;23.33;9.00;;;;;;;;;;4932862;28;20342;-67
2022/01/25 13:39:30;;;;;;;19.95;8.70;;;;;;;;;;4932343;28;20417;-67
2022/01/25 13:42:08;;;;;;;16.65;7.63;;;;;;;;;;4932646;28;20495;-68
2022/01/25 13:47:18;;;;;;;18.73;8.15;;;;;;;;;;4932318;28;20108;-67
2022/01/25 13:49:43;;;;;;;18.15;7.95;;;;;;;;;;4931908;28;20042;-67
2022/01/25 13:52:09;;;;;;;14.82;7.38;;;;;;;;;;4930549;28;20477;-67
2022/01/25 13:54:34;;;;;;;16.63;7.63;;;;;;;;;;4933473;28;20388;-67
2022/01/25 13:57:09;;;;;;;17.58;7.53;;;;;;;;;;4931601;28;20344;-66
2022/01/25 13:59:35;;;;;;;18.67;8.27;;;;;;;;;;4932011;28;20348;-66
2022/01/25 14:02:01;;;;;;;19.65;8.38;;;;;;;;;;4930752;28;20026;-68
2022/01/25 14:04:27;;;;;;;13.45;7.57;;;;;;;;;;4930475;28;20430;-67
2022/01/25 14:06:57;;;;;;;16.35;8.63;;;;;;;;;;4933383;28;20385;-69
2022/01/25 14:09:30;;;;;;;15.57;7.47;;;;;;;;;;4967383;28;20412;-67
2022/01/25 14:23:06;;;;;;;15.43;7.90;;;;;;;;;;4935916;28;20360;-67
2022/01/25 14:25:37;;;;;;;18.90;7.65;;;;;;;;;;4950922;28;20022;-67
2022/01/25 14:28:06;;;;;;;15.07;7.30;;;;;;;;;;4950379;28;20038;-67
2022/01/25 14:30:37;;;;;;;14.35;7.00;;;;;;;;;;4933682;28;20352;-67
2022/01/25 14:33:13;;;;;;;15.10;7.18;;;;;;;;;;4950496;28;20033;-68
2022/01/25 14:36:00;;;;;;;15.02;7.10;;;;;;;;;;4933350;28;20464;-66
2022/01/25 14:38:40;;;;;;;14.75;6.78;;;;;;;;;;4951919;28;20435;-67
2022/01/25 14:41:08;;;;;;;15.23;6.53;;;;;;;;;;4949720;28;20104;-67
2022/01/25 14:43:37;;;;;;;17.30;7.30;;;;;;;;;;4951325;28;20330;-68
2022/01/25 14:46:10;;;;;;;12.35;5.75;;;;;;;;;;4965128;28;20026;-67
2022/01/25 14:48:38;;;;;;;21.75;6.85;;;;;;;;;;4950943;28;20579;-66
2022/01/25 14:51:06;;;;;;;15.35;6.55;;;;;;;;;;4933162;28;20390;-67
2022/01/25 14:53:31;;;;;;;15.77;6.80;;;;;;;;;;4965018;28;20531;-68
2022/01/25 14:56:00;;;;;;;14.40;5.85;;;;;;;;;;4950649;28;20452;-67
2022/01/25 15:01:10;;;;;;;14.05;7.13;;;;;;;;;;4936150;28;20456;-67
2022/01/25 15:03:36;;;;;;;11.70;6.18;;;;;;;;;;4949916;28;20333;-67
2022/01/25 15:06:01;;;;;;;11.65;5.85;;;;;;;;;;4950255;28;20322;-67
2022/01/25 15:08:28;;;;;;;11.27;6.55;;;;;;;;;;4950306;28;20338;-67
2022/01/25 15:10:54;;;;;;;13.02;5.63;;;;;;;;;;4950323;28;20093;-67
2022/01/25 15:13:27;;;;;;;12.20;6.97;;;;;;;;;;4950211;28;20587;-67
2022/01/25 15:15:57;;;;;;;11.95;5.88;;;;;;;;;;4950621;28;20368;-69
2022/01/25 15:18:34;;;;;;;17.95;6.63;;;;;;;;;;4951171;28;20392;-66
2022/01/25 15:21:03;;;;;;;10.15;5.45;;;;;;;;;;4951595;28;20172;-67
2022/01/25 15:23:31;;;;;;;15.85;7.18;;;;;;;;;;4965071;28;20413;-67
2022/01/25 15:26:00;;;;;;;12.57;5.97;;;;;;;;;;4949881;28;20454;-67
2022/01/25 15:29:03;;;;;;;14.10;6.07;;;;;;;;;;4949577;28;20352;-67
2022/01/25 15:31:20;;;;;;;12.38;5.70;;;;;;;;;;4958252;28;20514;-67
2022/01/25 15:33:48;;;;;;;12.25;6.43;;;;;;;;;;4951277;28;20445;-67
2022/01/25 15:36:15;;;;;;;13.55;6.38;;;;;;;;;;4964731;28;21009;-66
2022/01/25 15:38:41;;;;;;;15.63;6.30;;;;;;;;;;4932983;28;20025;-67
2022/01/25 15:41:09;;;;;;;15.45;5.85;;;;;;;;;;4964729;28;20486;-66
2022/01/25 15:43:41;;;;;;;11.98;5.65;;;;;;;;;;4933286;28;20372;-67
2022/01/25 15:46:07;;;;;;;13.57;5.95;;;;;;;;;;4949598;28;20491;-67
2022/01/25 15:48:35;;;;;;;13.52;5.82;;;;;;;;;;4949945;28;20433;-67
2022/01/25 15:51:01;;;;;;;13.63;5.78;;;;;;;;;;4964240;28;20440;-66
2022/01/25 15:53:27;;;;;;;17.38;7.22;;;;;;;;;;4950279;28;20471;-67
2022/01/25 15:55:52;;;;;;;14.82;5.88;;;;;;;;;;4953457;28;20325;-67
2022/01/25 15:58:19;;;;;;;14.85;6.25;;;;;;;;;;4968039;28;20424;-67
2022/01/25 16:00:47;;;;;;;14.18;6.82;;;;;;;;;;4955145;28;20313;-68
2022/01/25 16:03:17;;;;;;;12.90;6.30;;;;;;;;;;4936610;28;20404;-67
2022/01/25 16:05:43;;;;;;;14.88;6.22;;;;;;;;;;4952951;28;20396;-66
2022/01/25 16:08:09;;;;;;;13.07;6.25;;;;;;;;;;4952512;28;20352;-67
2022/01/25 16:10:35;;;;;;;10.48;5.80;;;;;;;;;;4936073;28;20112;-67
2022/01/25 16:13:01;;;;;;;13.82;6.35;;;;;;;;;;4953135;28;20459;-67
2022/01/25 16:15:26;;;;;;;14.18;6.18;;;;;;;;;;4935785;28;20184;-66
2022/01/25 16:17:52;;;;;;;10.07;5.75;;;;;;;;;;4935459;28;20076;-67
2022/01/25 16:20:17;;;;;;;13.77;6.93;;;;;;;;;;4935487;28;20346;-67